Time;durP1;ratioP1;P1;durP2;ratioP2;P2;SDS_P1;SDS_P2;PMS_P1;PMS_P2;Temp;Humidity;BMP_temperature;BMP_pressure;BME280_temperature;BME280_humidity;BME280_pressure;Samples;Min_cycle;Max_cycle;Signal;HPM_P1;HPM_P2
2022/09/10 00:01:59;;;;;;;;;;;20.00;99.90;;;;;;5097142;28;19916;-20
2022/09/10 00:04:26;;;;;;;;;;;20.10;99.90;;;;;;5097562;28;20235;-20
2022/09/10 00:06:52;;;;;;;;;;;20.20;99.90;;;;;;5079338;28;19965;-20
2022/09/10 00:09:18;;;;;;;;;;;20.20;99.90;;;;;;5098051;28;20289;-21
2022/09/10 00:11:45;;;;;;;;;;;20.30;99.90;;;;;;5097121;28;19919;-20
2022/09/10 00:14:16;;;;;;;;;;;20.00;99.90;;;;;;5080120;28;19908;-21
2022/09/10 00:16:45;;;;;;;;;;;20.10;99.90;;;;;;5097041;28;19908;-19
2022/09/10 00:19:11;;;;;;;;;;;20.20;99.90;;;;;;5079011;28;19915;-18
2022/09/10 00:21:36;;;;;;;;;;;20.30;99.90;;;;;;5096849;28;19912;-20
2022/09/10 00:24:03;;;;;;;;;;;20.10;99.90;;;;;;5096385;28;20338;-19
2022/09/10 00:26:33;;;;;;;;;;;20.10;99.90;;;;;;5078962;28;19908;-20
2022/09/10 00:28:58;;;;;;;;;;;20.20;99.90;;;;;;5079092;28;19916;-19
2022/09/10 00:31:24;;;;;;;;;;;20.30;99.90;;;;;;5079351;28;19908;-22
2022/09/10 00:33:50;;;;;;;;;;;20.30;99.90;;;;;;5079784;28;19908;-19
2022/09/10 00:36:18;;;;;;;;;;;20.40;99.90;;;;;;5099182;28;19915;-20
2022/09/10 00:38:44;;;;;;;;;;;20.40;99.90;;;;;;5083026;28;20375;-20
2022/09/10 00:41:10;;;;;;;;;;;20.40;99.90;;;;;;5099534;28;20014;-20
2022/09/10 00:43:47;;;;;;;;;;;20.50;99.90;;;;;;5099252;28;19999;-20
2022/09/10 00:46:14;;;;;;;;;;;20.50;99.90;;;;;;5099787;28;20281;-20
2022/09/10 00:48:40;;;;;;;;;;;20.50;99.90;;;;;;5100303;28;19947;-20
2022/09/10 00:51:05;;;;;;;;;;;20.50;99.90;;;;;;5100162;28;19915;-21
2022/09/10 00:53:31;;;;;;;;;;;20.50;99.90;;;;;;5082636;28;19977;-22
2022/09/10 00:56:04;;;;;;;;;;;20.60;99.90;;;;;;5100314;28;19908;-19
2022/09/10 00:58:30;;;;;;;;;;;20.50;99.90;;;;;;5100959;28;19918;-20
2022/09/10 01:00:59;;;;;;;;;;;20.50;99.90;;;;;;5100178;28;20252;-19
2022/09/10 01:03:25;;;;;;;;;;;20.50;99.90;;;;;;5082129;28;19999;-20
2022/09/10 01:05:52;;;;;;;;;;;20.40;99.90;;;;;;5082276;28;19919;-20
2022/09/10 01:08:18;;;;;;;;;;;20.40;99.90;;;;;;5100495;28;20003;-20
2022/09/10 01:10:52;;;;;;;;;;;20.50;99.90;;;;;;5100111;28;19968;-19
2022/09/10 01:13:37;;;;;;;;;;;20.50;99.90;;;;;;5082693;28;19912;-21
2022/09/10 01:16:13;;;;;;;;;;;20.50;99.90;;;;;;5082621;28;19909;-20
2022/09/10 01:18:39;;;;;;;;;;;20.50;99.90;;;;;;5100070;28;19958;-20
2022/09/10 01:21:05;;;;;;;;;;;20.50;99.90;;;;;;5100147;28;20235;-19
2022/09/10 01:23:58;;;;;;;;;;;20.40;99.90;;;;;;5099615;28;19955;-20
2022/09/10 01:26:42;;;;;;;;;;;20.50;99.90;;;;;;5080276;28;19973;-19
2022/09/10 01:29:12;;;;;;;;;;;20.40;99.90;;;;;;5082175;28;20334;-20
2022/09/10 01:32:08;;;;;;;;;;;20.50;99.90;;;;;;5099839;28;19912;-20
2022/09/10 01:34:41;;;;;;;;;;;20.50;99.90;;;;;;5011199;28;19965;-21
2022/09/10 01:37:13;;;;;;;;;;;20.50;99.90;;;;;;5082451;28;20461;-20
2022/09/10 01:39:40;;;;;;;;;;;20.50;99.90;;;;;;5099434;28;20183;-20
2022/09/10 01:42:06;;;;;;;;;;;20.50;99.90;;;;;;5082478;28;19919;-20
2022/09/10 01:44:45;;;;;;;;;;;20.50;99.90;;;;;;5099630;28;19908;-19
2022/09/10 01:47:21;;;;;;;;;;;20.50;99.90;;;;;;5081553;28;19908;-22
2022/09/10 01:49:49;;;;;;;;;;;20.60;99.90;;;;;;5081479;28;19919;-21
2022/09/10 01:52:27;;;;;;;;;;;20.60;99.90;;;;;;5082454;28;19945;-21
2022/09/10 01:54:55;;;;;;;;;;;20.30;99.90;;;;;;5099444;28;19912;-20
2022/09/10 01:57:40;;;;;;;;;;;20.30;99.90;;;;;;5081950;28;19910;-19
2022/09/10 02:00:08;;;;;;;;;;;20.40;99.90;;;;;;5081031;28;19912;-20
2022/09/10 02:02:39;;;;;;;;;;;20.30;99.90;;;;;;5098892;28;19948;-19
2022/09/10 02:05:05;;;;;;;;;;;20.40;99.90;;;;;;5080673;28;19918;-20
2022/09/10 02:07:33;;;;;;;;;;;20.30;99.90;;;;;;5098237;28;19908;-20
2022/09/10 02:09:59;;;;;;;;;;;20.10;99.90;;;;;;5081709;28;19912;-19
2022/09/10 02:12:25;;;;;;;;;;;20.00;99.90;;;;;;5080891;28;19908;-20
2022/09/10 02:14:54;;;;;;;;;;;19.80;99.90;;;;;;5099104;28;19908;-19
2022/09/10 02:17:20;;;;;;;;;;;19.60;99.90;;;;;;5081188;28;20279;-21
2022/09/10 02:19:46;;;;;;;;;;;19.60;99.90;;;;;;5099197;28;20273;-21
2022/09/10 02:22:14;;;;;;;;;;;19.70;99.90;;;;;;5081438;28;20269;-20
2022/09/10 02:24:43;;;;;;;;;;;19.80;99.90;;;;;;5081652;28;20185;-19
2022/09/10 02:27:09;;;;;;;;;;;19.70;99.90;;;;;;5081338;28;19912;-20
2022/09/10 02:29:35;;;;;;;;;;;19.80;99.90;;;;;;5099140;28;19912;-20
2022/09/10 02:32:01;;;;;;;;;;;19.70;99.90;;;;;;5099230;28;20192;-20
2022/09/10 02:34:26;;;;;;;;;;;19.70;99.90;;;;;;5081578;28;19908;-19
2022/09/10 02:36:52;;;;;;;;;;;19.50;99.90;;;;;;5098777;28;19965;-19
2022/09/10 02:39:17;;;;;;;;;;;19.50;99.90;;;;;;5081638;28;19920;-21
2022/09/10 02:41:44;;;;;;;;;;;19.60;99.90;;;;;;5081140;28;19909;-20
2022/09/10 02:44:09;;;;;;;;;;;19.50;99.90;;;;;;5098452;28;19908;-19
2022/09/10 02:46:35;;;;;;;;;;;19.50;99.90;;;;;;5080707;28;20006;-19
2022/09/10 02:49:00;;;;;;;;;;;19.10;99.90;;;;;;5080636;28;19919;-20
2022/09/10 02:51:26;;;;;;;;;;;18.80;99.90;;;;;;5098880;28;20018;-21
2022/09/10 02:53:52;;;;;;;;;;;18.70;99.90;;;;;;5080550;28;19908;-20
2022/09/10 02:56:18;;;;;;;;;;;18.70;99.90;;;;;;5080804;28;19912;-19
2022/09/10 02:58:44;;;;;;;;;;;18.80;99.90;;;;;;5080664;28;20270;-19
2022/09/10 03:01:13;;;;;;;;;;;19.00;99.90;;;;;;5098839;28;19912;-21
2022/09/10 03:03:39;;;;;;;;;;;19.10;99.90;;;;;;5098192;28;20001;-21
2022/09/10 03:06:05;;;;;;;;;;;19.30;99.90;;;;;;5098303;28;19974;-21
2022/09/10 03:08:30;;;;;;;;;;;19.50;99.90;;;;;;5080364;28;20264;-19
2022/09/10 03:10:58;;;;;;;;;;;19.60;99.90;;;;;;5097879;28;19947;-20
2022/09/10 03:13:26;;;;;;;;;;;19.60;99.90;;;;;;5098249;28;20211;-21
2022/09/10 03:15:53;;;;;;;;;;;19.60;99.90;;;;;;5081108;28;19923;-21
2022/09/10 03:18:19;;;;;;;;;;;19.60;99.90;;;;;;5097694;28;19939;-21
2022/09/10 03:20:45;;;;;;;;;;;19.60;99.90;;;;;;5080765;28;19948;-20
2022/09/10 03:23:11;;;;;;;;;;;19.70;99.90;;;;;;5080592;28;20381;-20
2022/09/10 03:25:36;;;;;;;;;;;19.60;99.90;;;;;;5080161;28;19909;-21
2022/09/10 03:28:02;;;;;;;;;;;19.30;99.90;;;;;;5079680;28;19916;-19
2022/09/10 03:30:28;;;;;;;;;;;19.40;99.90;;;;;;5080205;28;19908;-21
2022/09/10 03:32:53;;;;;;;;;;;19.40;99.90;;;;;;5080422;28;19908;-21
2022/09/10 03:35:19;;;;;;;;;;;19.30;99.90;;;;;;5097967;28;19993;-20
2022/09/10 03:37:46;;;;;;;;;;;19.40;99.90;;;;;;5098277;28;19908;-20
2022/09/10 03:40:11;;;;;;;;;;;19.50;99.90;;;;;;5097354;28;19912;-21
2022/09/10 03:42:37;;;;;;;;;;;19.60;99.90;;;;;;5098489;28;20050;-19
2022/09/10 03:45:03;;;;;;;;;;;19.60;99.90;;;;;;5079991;28;19944;-21
2022/09/10 03:47:30;;;;;;;;;;;19.60;99.90;;;;;;5097688;28;20057;-21
2022/09/10 03:49:55;;;;;;;;;;;19.50;99.90;;;;;;5080226;28;19919;-20
2022/09/10 03:52:21;;;;;;;;;;;19.20;99.90;;;;;;5097736;28;19908;-20
2022/09/10 03:54:49;;;;;;;;;;;19.20;99.90;;;;;;5098072;28;19908;-19
2022/09/10 03:57:16;;;;;;;;;;;19.30;99.90;;;;;;5079997;28;19908;-20
2022/09/10 03:59:42;;;;;;;;;;;19.50;99.90;;;;;;5080263;28;19920;-19
2022/09/10 04:02:10;;;;;;;;;;;19.60;99.90;;;;;;5080308;28;20361;-20
2022/09/10 04:04:36;;;;;;;;;;;19.50;99.90;;;;;;5097280;28;19919;-21
2022/09/10 04:07:03;;;;;;;;;;;19.50;99.90;;;;;;5079414;28;19919;-20
2022/09/10 04:09:30;;;;;;;;;;;19.60;99.90;;;;;;5079679;28;19931;-20
2022/09/10 04:11:55;;;;;;;;;;;19.70;99.90;;;;;;5100011;28;19916;-19
2022/09/10 04:14:21;;;;;;;;;;;19.80;99.90;;;;;;5101209;28;19961;-21
2022/09/10 04:16:49;;;;;;;;;;;19.70;99.90;;;;;;5101062;28;19920;-20
2022/09/10 04:19:14;;;;;;;;;;;19.50;99.90;;;;;;5100797;28;20003;-20
2022/09/10 04:21:40;;;;;;;;;;;19.00;99.90;;;;;;5101449;28;20002;-19
2022/09/10 04:24:08;;;;;;;;;;;19.00;99.90;;;;;;5101234;28;19908;-19
2022/09/10 04:26:35;;;;;;;;;;;18.80;99.90;;;;;;5083897;28;19908;-20
2022/09/10 04:29:01;;;;;;;;;;;18.80;99.90;;;;;;5101175;28;20273;-21
2022/09/10 04:31:26;;;;;;;;;;;18.80;99.90;;;;;;5082988;28;20328;-20
2022/09/10 04:33:52;;;;;;;;;;;19.00;99.90;;;;;;5100752;28;19973;-20
2022/09/10 04:36:23;;;;;;;;;;;18.90;99.90;;;;;;5099620;28;19919;-20
2022/09/10 04:38:49;;;;;;;;;;;18.60;99.90;;;;;;5100068;28;20255;-20
2022/09/10 04:41:17;;;;;;;;;;;18.50;99.90;;;;;;5082779;28;19920;-20
2022/09/10 04:43:42;;;;;;;;;;;18.50;99.90;;;;;;5082580;28;19909;-19
2022/09/10 04:46:08;;;;;;;;;;;18.70;99.90;;;;;;5082731;28;19961;-21
2022/09/10 04:48:33;;;;;;;;;;;18.90;99.90;;;;;;5099855;28;20183;-21
2022/09/10 04:50:59;;;;;;;;;;;18.80;99.90;;;;;;5099900;28;19955;-20
2022/09/10 04:53:26;;;;;;;;;;;18.80;99.90;;;;;;5082209;28;19951;-19
2022/09/10 04:55:53;;;;;;;;;;;18.70;99.90;;;;;;5099372;28;19964;-20
2022/09/10 04:58:20;;;;;;;;;;;18.90;99.90;;;;;;5100594;28;19918;-20
2022/09/10 05:00:46;;;;;;;;;;;19.00;99.90;;;;;;5082024;28;19918;-19
2022/09/10 05:03:12;;;;;;;;;;;19.00;99.90;;;;;;5099654;28;20272;-20
2022/09/10 05:05:38;;;;;;;;;;;19.10;99.90;;;;;;5099334;28;19908;-20
2022/09/10 05:08:06;;;;;;;;;;;19.10;99.90;;;;;;5099160;28;20297;-19
2022/09/10 05:10:31;;;;;;;;;;;19.00;99.90;;;;;;5099356;28;19930;-20
2022/09/10 05:12:57;;;;;;;;;;;19.00;99.90;;;;;;5099237;28;19908;-21
2022/09/10 05:15:22;;;;;;;;;;;18.90;99.90;;;;;;5081429;28;20002;-20
2022/09/10 05:17:50;;;;;;;;;;;19.00;99.90;;;;;;5081012;28;19912;-20
2022/09/10 05:20:16;;;;;;;;;;;19.10;99.90;;;;;;5081392;28;20197;-20
2022/09/10 05:22:42;;;;;;;;;;;19.30;99.90;;;;;;5098486;28;20600;-20
2022/09/10 05:25:08;;;;;;;;;;;19.40;99.90;;;;;;5081974;28;20227;-20
2022/09/10 05:27:33;;;;;;;;;;;19.50;99.90;;;;;;5099069;28;19948;-19
2022/09/10 05:30:00;;;;;;;;;;;19.40;99.90;;;;;;5099728;28;20005;-21
2022/09/10 05:32:27;;;;;;;;;;;19.50;99.90;;;;;;5099357;28;19916;-19
2022/09/10 05:34:54;;;;;;;;;;;19.50;99.90;;;;;;5099912;28;20298;-19
2022/09/10 05:37:20;;;;;;;;;;;19.30;99.90;;;;;;5099915;28;19908;-19
2022/09/10 05:39:47;;;;;;;;;;;19.40;99.90;;;;;;5081480;28;19916;-21
2022/09/10 05:42:13;;;;;;;;;;;19.20;99.90;;;;;;5081239;28;19908;-20
2022/09/10 05:44:40;;;;;;;;;;;19.00;99.90;;;;;;5081690;28;19918;-20
2022/09/10 05:47:06;;;;;;;;;;;19.10;99.90;;;;;;5082130;28;19919;-20
2022/09/10 05:49:31;;;;;;;;;;;18.70;99.90;;;;;;5081549;28;19908;-19
2022/09/10 05:51:57;;;;;;;;;;;18.30;99.90;;;;;;5099615;28;19951;-21
2022/09/10 05:54:23;;;;;;;;;;;18.30;99.90;;;;;;5098401;28;19908;-20
2022/09/10 05:56:49;;;;;;;;;;;18.20;99.90;;;;;;5081496;28;19943;-21
2022/09/10 05:59:14;;;;;;;;;;;18.20;99.90;;;;;;5098803;28;20443;-21
2022/09/10 06:01:40;;;;;;;;;;;17.90;99.90;;;;;;5098067;28;19912;-19
2022/09/10 06:04:06;;;;;;;;;;;18.00;99.90;;;;;;5098571;28;19908;-20
2022/09/10 06:06:31;;;;;;;;;;;18.30;99.90;;;;;;5098546;28;19908;-20
2022/09/10 06:08:57;;;;;;;;;;;18.50;99.90;;;;;;5097945;28;19919;-19
2022/09/10 06:11:22;;;;;;;;;;;18.70;99.90;;;;;;5097382;28;19912;-20
2022/09/10 06:13:48;;;;;;;;;;;18.90;99.90;;;;;;5079251;28;20336;-19
2022/09/10 06:16:13;;;;;;;;;;;19.10;99.90;;;;;;5097881;28;20224;-19
2022/09/10 06:18:39;;;;;;;;;;;19.20;99.90;;;;;;5097632;28;20011;-21
2022/09/10 06:21:14;;;;;;;;;;;19.30;99.90;;;;;;5080240;28;19916;-21
2022/09/10 06:23:39;;;;;;;;;;;19.40;99.90;;;;;;5080509;28;20269;-22
2022/09/10 06:26:07;;;;;;;;;;;19.60;99.90;;;;;;5080363;28;19908;-21
2022/09/10 06:28:35;;;;;;;;;;;19.70;99.90;;;;;;5097956;28;19923;-20
2022/09/10 06:31:03;;;;;;;;;;;19.70;99.90;;;;;;5080524;28;19915;-19
2022/09/10 06:33:29;;;;;;;;;;;19.70;99.90;;;;;;5098347;28;19908;-21
2022/09/10 06:35:55;;;;;;;;;;;19.80;99.90;;;;;;5080587;28;19919;-18
2022/09/10 06:38:21;;;;;;;;;;;19.80;99.90;;;;;;5098091;28;20277;-20
2022/09/10 06:40:53;;;;;;;;;;;19.90;99.90;;;;;;5080915;28;20286;-20
2022/09/10 06:43:19;;;;;;;;;;;19.90;99.90;;;;;;5097938;28;19916;-22
2022/09/10 06:45:45;;;;;;;;;;;20.00;99.90;;;;;;5097470;28;19958;-20
2022/09/10 06:48:11;;;;;;;;;;;20.00;99.90;;;;;;5096431;28;19908;-20
2022/09/10 06:50:36;;;;;;;;;;;20.10;99.90;;;;;;5096388;28;20397;-18
2022/09/10 06:53:02;;;;;;;;;;;20.20;99.90;;;;;;5096079;28;19908;-21
2022/09/10 06:55:34;;;;;;;;;;;20.20;99.90;;;;;;5096441;28;19908;-21
2022/09/10 06:58:00;;;;;;;;;;;20.20;99.90;;;;;;5079744;28;19912;-20
2022/09/10 07:00:25;;;;;;;;;;;19.90;99.90;;;;;;5078158;28;19977;-19
2022/09/10 07:02:51;;;;;;;;;;;19.50;99.90;;;;;;5078995;28;19948;-14
2022/09/10 07:05:16;;;;;;;;;;;18.90;99.90;;;;;;5094671;28;19955;-14
2022/09/10 07:07:42;;;;;;;;;;;19.20;99.90;;;;;;5095186;28;19908;-14
2022/09/10 07:10:08;;;;;;;;;;;19.50;99.90;;;;;;5095940;28;19908;-14
2022/09/10 07:12:35;;;;;;;;;;;19.70;99.90;;;;;;5077843;28;19919;-14
2022/09/10 07:15:00;;;;;;;;;;;19.90;99.90;;;;;;5096772;28;19908;-14
2022/09/10 07:17:26;;;;;;;;;;;20.00;99.90;;;;;;5096656;28;19961;-15
2022/09/10 07:19:51;;;;;;;;;;;20.10;99.90;;;;;;5078619;28;19976;-14
2022/09/10 07:22:17;;;;;;;;;;;20.10;99.90;;;;;;5096244;28;19908;-9
2022/09/10 07:24:44;;;;;;;;;;;20.30;99.90;;;;;;5095284;28;19908;-10
2022/09/10 07:27:09;;;;;;;;;;;20.40;99.90;;;;;;5079491;28;20169;-11
2022/09/10 07:29:35;;;;;;;;;;;20.50;99.90;;;;;;5078161;28;20303;-11
2022/09/10 07:32:03;;;;;;;;;;;20.60;99.90;;;;;;5091144;28;20254;-10
2022/09/10 07:34:29;;;;;;;;;;;20.70;99.90;;;;;;5084507;28;20173;-12
2022/09/10 07:36:55;;;;;;;;;;;20.80;99.90;;;;;;5084010;28;19912;-12
2022/09/10 07:39:22;;;;;;;;;;;20.90;99.90;;;;;;5054127;28;19909;-10
2022/09/10 07:41:47;;;;;;;;;;;21.00;99.90;;;;;;5074359;28;19909;-11
2022/09/10 07:44:13;;;;;;;;;;;21.10;99.90;;;;;;5073530;28;19919;-10
2022/09/10 07:46:38;;;;;;;;;;;21.20;99.90;;;;;;5094650;28;20209;-10
2022/09/10 07:49:04;;;;;;;;;;;21.30;99.90;;;;;;5096493;28;19916;-11
2022/09/10 07:51:31;;;;;;;;;;;21.40;99.90;;;;;;5093839;28;19908;-11
2022/09/10 07:53:58;;;;;;;;;;;21.40;99.90;;;;;;5091531;28;20386;-11
2022/09/10 07:56:24;;;;;;;;;;;21.50;99.90;;;;;;5092738;28;19908;-11
2022/09/10 07:58:50;;;;;;;;;;;21.50;99.90;;;;;;5091672;28;19924;-10
2022/09/10 08:01:18;;;;;;;;;;;21.50;99.90;;;;;;5091627;28;19918;-11
2022/09/10 08:03:44;;;;;;;;;;;21.50;99.90;;;;;;5073506;28;19919;-11
2022/09/10 08:06:09;;;;;;;;;;;21.50;99.90;;;;;;5091008;28;19916;-11
2022/09/10 08:08:36;;;;;;;;;;;21.40;99.90;;;;;;5075957;28;19909;-11
2022/09/10 08:11:13;;;;;;;;;;;21.40;99.90;;;;;;5075589;28;20292;-10
2022/09/10 08:13:40;;;;;;;;;;;21.40;99.90;;;;;;5092048;28;19915;-11
2022/09/10 08:16:09;;;;;;;;;;;21.40;99.90;;;;;;5097343;28;19908;-10
2022/09/10 08:18:35;;;;;;;;;;;21.40;99.90;;;;;;5098822;28;19912;-11
2022/09/10 08:21:02;;;;;;;;;;;21.50;99.90;;;;;;5098989;28;20313;-12
2022/09/10 08:23:28;;;;;;;;;;;21.50;99.90;;;;;;5080847;28;19919;-10
2022/09/10 08:25:54;;;;;;;;;;;21.50;99.90;;;;;;5099462;28;19937;-11
2022/09/10 08:28:20;;;;;;;;;;;21.50;99.90;;;;;;5099887;28;19924;-10
2022/09/10 08:30:56;;;;;;;;;;;21.60;99.90;;;;;;5081630;28;20049;-11
2022/09/10 08:33:23;;;;;;;;;;;21.60;99.90;;;;;;5081678;28;20007;-11
2022/09/10 08:35:59;;;;;;;;;;;21.70;99.90;;;;;;5080874;28;19907;-12
2022/09/10 08:38:25;;;;;;;;;;;21.90;99.90;;;;;;5099443;28;19919;-10
2022/09/10 08:40:53;;;;;;;;;;;22.00;99.90;;;;;;5098548;28;19912;-11
2022/09/10 08:43:32;;;;;;;;;;;22.10;99.90;;;;;;5080482;28;19908;-11
2022/09/10 08:46:01;;;;;;;;;;;22.20;99.90;;;;;;5097409;28;20069;-11
2022/09/10 08:48:35;;;;;;;;;;;22.20;99.90;;;;;;5098365;28;20007;-11
2022/09/10 08:51:14;;;;;;;;;;;22.10;99.90;;;;;;5098220;28;19961;-9
2022/09/10 08:53:44;;;;;;;;;;;22.10;99.90;;;;;;5080578;28;19964;-10
2022/09/10 08:56:14;;;;;;;;;;;22.20;99.90;;;;;;5097365;28;19912;-12
2022/09/10 08:58:58;;;;;;;;;;;22.50;99.90;;;;;;5098352;28;19912;-11
2022/09/10 09:01:29;;;;;;;;;;;22.50;99.90;;;;;;5097158;28;19912;-11
2022/09/10 09:03:56;;;;;;;;;;;22.40;99.90;;;;;;5098247;28;20197;-11
2022/09/10 09:06:24;;;;;;;;;;;22.30;99.90;;;;;;5063034;28;19977;-12
2022/09/10 09:08:51;;;;;;;;;;;22.30;99.90;;;;;;5098544;28;20245;-11
2022/09/10 09:11:35;;;;;;;;;;;22.30;99.90;;;;;;5080076;28;19954;-10
2022/09/10 09:14:14;;;;;;;;;;;22.30;99.90;;;;;;5097456;28;19967;-10
2022/09/10 09:16:58;;;;;;;;;;;22.40;99.90;;;;;;5098218;28;19912;-11
2022/09/10 09:19:50;;;;;;;;;;;22.50;99.90;;;;;;5097915;28;19947;-11
2022/09/10 09:22:20;;;;;;;;;;;22.50;99.90;;;;;;5099114;28;19923;-11
2022/09/10 09:25:02;;;;;;;;;;;22.60;99.90;;;;;;5080533;28;19969;-12
2022/09/10 09:27:34;;;;;;;;;;;22.60;99.90;;;;;;5080006;28;19912;-12
2022/09/10 09:30:06;;;;;;;;;;;22.70;99.90;;;;;;5093984;28;19916;-9
2022/09/10 09:32:36;;;;;;;;;;;22.80;99.90;;;;;;5059114;28;19916;-9
2022/09/10 09:35:24;;;;;;;;;;;22.90;99.90;;;;;;5076480;28;20053;-10
2022/09/10 09:38:08;;;;;;;;;;;22.80;99.90;;;;;;5058212;28;20126;-10
2022/09/10 09:40:35;;;;;;;;;;;22.70;99.90;;;;;;5075437;28;19923;-12
2022/09/10 09:43:11;;;;;;;;;;;22.70;99.90;;;;;;5076969;28;19919;-11
2022/09/10 09:45:38;;;;;;;;;;;22.70;99.90;;;;;;5076757;28;19927;-11
2022/09/10 09:48:05;;;;;;;;;;;23.20;99.90;;;;;;5075622;28;19904;-10
2022/09/10 09:50:33;;;;;;;;;;;23.40;99.20;;;;;;5075552;28;19909;-11
2022/09/10 09:52:59;;;;;;;;;;;23.40;99.00;;;;;;5075520;28;20201;-11
2022/09/10 09:55:39;;;;;;;;;;;23.30;98.90;;;;;;5075973;28;20258;-11
2022/09/10 09:58:27;;;;;;;;;;;23.30;99.30;;;;;;5057689;28;19939;-11
2022/09/10 10:00:54;;;;;;;;;;;23.50;98.80;;;;;;5074140;28;19920;-11
2022/09/10 10:03:23;;;;;;;;;;;23.50;99.00;;;;;;5083965;28;20312;-10
2022/09/10 10:05:49;;;;;;;;;;;23.40;99.50;;;;;;5078170;28;19909;-10
2022/09/10 10:08:29;;;;;;;;;;;23.30;99.90;;;;;;5094671;28;19909;-11
2022/09/10 10:10:55;;;;;;;;;;;23.10;99.90;;;;;;5094505;28;20550;-11
2022/09/10 10:13:21;;;;;;;;;;;23.00;99.90;;;;;;5094207;28;19927;-10
2022/09/10 10:15:47;;;;;;;;;;;22.90;99.90;;;;;;5096849;28;19916;-12
2022/09/10 10:18:22;;;;;;;;;;;22.80;99.90;;;;;;5078389;28;19908;-11
2022/09/10 10:21:15;;;;;;;;;;;22.70;99.90;;;;;;5078339;28;20014;-10
2022/09/10 10:23:41;;;;;;;;;;;22.60;99.90;;;;;;5039848;28;19982;-10
2022/09/10 10:26:19;;;;;;;;;;;22.50;99.90;;;;;;5095551;28;20464;-12
2022/09/10 10:29:05;;;;;;;;;;;22.50;99.90;;;;;;5077675;28;19944;-10
2022/09/10 10:31:36;;;;;;;;;;;22.40;99.90;;;;;;5095178;28;20174;-11
2022/09/10 10:34:13;;;;;;;;;;;22.40;99.90;;;;;;5095331;28;19950;-12
2022/09/10 10:36:49;;;;;;;;;;;22.30;99.90;;;;;;5095619;28;19918;-10
2022/09/10 10:39:14;;;;;;;;;;;22.30;99.90;;;;;;5078606;28;19940;-11
2022/09/10 10:42:03;;;;;;;;;;;22.20;99.90;;;;;;5095609;28;20381;-10
2022/09/10 10:44:47;;;;;;;;;;;22.20;99.90;;;;;;5047995;28;20014;-11
2022/09/10 10:47:22;;;;;;;;;;;22.20;99.90;;;;;;5096916;28;19908;-11
2022/09/10 10:50:07;;;;;;;;;;;22.20;99.90;;;;;;5094050;28;19923;-11
2022/09/10 10:52:57;;;;;;;;;;;22.20;99.90;;;;;;5078598;28;19908;-10
2022/09/10 10:55:32;;;;;;;;;;;22.10;99.90;;;;;;5095962;28;19911;-11
2022/09/10 10:57:57;;;;;;;;;;;22.10;99.90;;;;;;5096868;28;19915;-11
2022/09/10 11:00:23;;;;;;;;;;;22.10;99.90;;;;;;5077692;28;19916;-11
2022/09/10 11:03:08;;;;;;;;;;;22.10;99.90;;;;;;5096035;28;20268;-10
2022/09/10 11:05:41;;;;;;;;;;;22.10;99.90;;;;;;5096034;28;20007;-12
2022/09/10 11:08:06;;;;;;;;;;;22.10;99.90;;;;;;5095836;28;20309;-10
2022/09/10 11:10:44;;;;;;;;;;;22.00;99.90;;;;;;5096528;28;20014;-12
2022/09/10 11:13:22;;;;;;;;;;;22.10;99.90;;;;;;5095683;28;19948;-12
2022/09/10 11:15:58;;;;;;;;;;;22.10;99.90;;;;;;5078357;28;19912;-12
2022/09/10 11:18:44;;;;;;;;;;;22.10;99.90;;;;;;5088334;28;20437;-11
2022/09/10 11:21:28;;;;;;;;;;;22.10;99.90;;;;;;5072204;28;19912;-13
2022/09/10 11:24:03;;;;;;;;;;;22.10;99.90;;;;;;5095185;28;19951;-9
2022/09/10 11:26:35;;;;;;;;;;;22.10;99.90;;;;;;5087294;28;19920;-11
2022/09/10 11:29:13;;;;;;;;;;;22.10;99.90;;;;;;5064586;28;19997;-10
2022/09/10 11:31:51;;;;;;;;;;;22.10;99.90;;;;;;5068781;28;19908;-11
2022/09/10 11:34:21;;;;;;;;;;;22.10;99.90;;;;;;5060415;28;20379;-12
2022/09/10 11:36:51;;;;;;;;;;;22.10;99.90;;;;;;5057202;28;20278;-11
2022/09/10 11:39:16;;;;;;;;;;;22.10;99.90;;;;;;5057175;28;19908;-11
2022/09/10 11:41:42;;;;;;;;;;;22.10;99.90;;;;;;5086750;28;20062;-9
2022/09/10 11:44:15;;;;;;;;;;;22.10;99.90;;;;;;5083733;28;20316;-9
2022/09/10 11:46:40;;;;;;;;;;;22.10;99.90;;;;;;5071400;28;20454;-10
2022/09/10 11:49:06;;;;;;;;;;;22.10;99.90;;;;;;5090051;28;19919;-10
2022/09/10 11:51:36;;;;;;;;;;;22.10;99.90;;;;;;5077105;28;19920;-12
2022/09/10 11:54:02;;;;;;;;;;;22.20;99.90;;;;;;5077907;28;19920;-12
2022/09/10 11:56:31;;;;;;;;;;;22.30;99.90;;;;;;5087312;28;19909;-10
2022/09/10 11:59:09;;;;;;;;;;;22.60;99.90;;;;;;5066552;28;19923;-11
2022/09/10 12:01:35;;;;;;;;;;;22.70;99.90;;;;;;5090017;28;19924;-12
2022/09/10 12:04:21;;;;;;;;;;;22.90;99.90;;;;;;5086022;28;19912;-11
2022/09/10 12:07:05;;;;;;;;;;;23.00;99.90;;;;;;5075609;28;19969;-10
2022/09/10 12:09:44;;;;;;;;;;;23.00;99.90;;;;;;5074579;28;19920;-10
2022/09/10 12:12:12;;;;;;;;;;;22.90;99.90;;;;;;5074402;28;20296;-10
2022/09/10 12:14:40;;;;;;;;;;;22.80;99.90;;;;;;5074288;28;20008;-11
2022/09/10 12:17:09;;;;;;;;;;;22.70;99.90;;;;;;5075385;28;20261;-10
2022/09/10 12:19:37;;;;;;;;;;;22.60;99.90;;;;;;5074509;28;19943;-9
2022/09/10 12:22:04;;;;;;;;;;;22.60;99.90;;;;;;5074529;28;19955;-10
2022/09/10 12:24:33;;;;;;;;;;;22.60;99.90;;;;;;5057058;28;19912;-11
2022/09/10 12:27:00;;;;;;;;;;;22.60;99.90;;;;;;5074326;28;19909;-11
2022/09/10 12:29:33;;;;;;;;;;;22.60;99.90;;;;;;5074327;28;19917;-10
2022/09/10 12:32:11;;;;;;;;;;;22.60;99.90;;;;;;5080459;28;19908;-10
2022/09/10 12:34:37;;;;;;;;;;;22.70;99.90;;;;;;5097725;28;19963;-9
2022/09/10 12:37:09;;;;;;;;;;;22.70;99.90;;;;;;5098185;28;19922;-10
2022/09/10 12:39:34;;;;;;;;;;;22.70;99.90;;;;;;5080132;28;19916;-10
2022/09/10 12:42:01;;;;;;;;;;;22.70;99.90;;;;;;5098562;28;19923;-9
2022/09/10 12:44:47;;;;;;;;;;;22.70;99.90;;;;;;5099205;28;19929;-9
2022/09/10 12:47:16;;;;;;;;;;;22.70;99.90;;;;;;5079642;28;19908;-10
2022/09/10 12:49:53;;;;;;;;;;;22.70;99.90;;;;;;5080507;28;19947;-11
2022/09/10 12:52:25;;;;;;;;;;;22.70;99.90;;;;;;5080393;28;19915;-11
2022/09/10 12:55:00;;;;;;;;;;;22.70;99.90;;;;;;5098296;28;20006;-10
2022/09/10 12:57:26;;;;;;;;;;;22.70;99.90;;;;;;5099198;28;20452;-9
2022/09/10 12:59:51;;;;;;;;;;;22.70;99.90;;;;;;5099061;28;19908;-10
2022/09/10 13:02:19;;;;;;;;;;;22.70;99.90;;;;;;5081313;28;19908;-10
2022/09/10 13:04:51;;;;;;;;;;;22.60;99.90;;;;;;5080267;28;19908;-11
2022/09/10 13:07:20;;;;;;;;;;;22.60;99.90;;;;;;5097108;28;20283;-10
2022/09/10 13:09:54;;;;;;;;;;;22.60;99.90;;;;;;5080139;28;19908;-10
2022/09/10 13:12:21;;;;;;;;;;;22.60;99.90;;;;;;5097286;28;20301;-10
2022/09/10 13:14:49;;;;;;;;;;;22.60;99.90;;;;;;5098324;28;19930;-11
2022/09/10 13:17:34;;;;;;;;;;;22.60;99.90;;;;;;5097087;28;20433;-10
2022/09/10 13:20:11;;;;;;;;;;;22.60;99.90;;;;;;5079170;28;19919;-10
2022/09/10 13:22:55;;;;;;;;;;;22.50;99.90;;;;;;5096947;28;19938;-10
2022/09/10 13:25:33;;;;;;;;;;;22.50;99.90;;;;;;5098045;28;19912;-10
2022/09/10 13:27:59;;;;;;;;;;;22.50;99.90;;;;;;5096972;28;19916;-10
2022/09/10 13:30:25;;;;;;;;;;;22.50;99.90;;;;;;5097654;28;19958;-9
2022/09/10 13:32:59;;;;;;;;;;;22.50;99.90;;;;;;5098722;28;19943;-10
2022/09/10 13:35:28;;;;;;;;;;;22.40;99.90;;;;;;5098677;28;19904;-11
2022/09/10 13:38:02;;;;;;;;;;;22.40;99.90;;;;;;5097753;28;19977;-8
2022/09/10 13:40:47;;;;;;;;;;;22.40;99.90;;;;;;5097928;28;19912;-10
2022/09/10 13:43:25;;;;;;;;;;;22.30;99.90;;;;;;5079965;28;19920;-10
2022/09/10 13:45:54;;;;;;;;;;;22.30;99.90;;;;;;5078904;28;19916;-9
2022/09/10 13:48:20;;;;;;;;;;;22.30;99.90;;;;;;5094139;28;19916;-11
2022/09/10 13:50:46;;;;;;;;;;;22.30;99.90;;;;;;5097982;28;19908;-10
2022/09/10 13:53:13;;;;;;;;;;;22.30;99.90;;;;;;5080041;28;19912;-10
2022/09/10 13:55:44;;;;;;;;;;;22.30;99.90;;;;;;5096757;28;20390;-10
2022/09/10 13:58:15;;;;;;;;;;;22.20;99.90;;;;;;5064947;28;19951;-10
2022/09/10 14:01:02;;;;;;;;;;;22.20;99.90;;;;;;5077750;28;19978;-10
2022/09/10 14:03:35;;;;;;;;;;;22.20;99.90;;;;;;5077738;28;20007;-9
2022/09/10 14:06:03;;;;;;;;;;;22.20;99.90;;;;;;5077861;28;19916;-10
2022/09/10 14:08:37;;;;;;;;;;;22.20;99.90;;;;;;5060235;28;19908;-10
2022/09/10 14:11:12;;;;;;;;;;;22.10;99.90;;;;;;5074836;28;19998;-10
2022/09/10 14:13:40;;;;;;;;;;;22.10;99.90;;;;;;5073464;28;19909;-10
2022/09/10 14:16:09;;;;;;;;;;;22.10;99.90;;;;;;5077217;28;20019;-10
2022/09/10 14:18:41;;;;;;;;;;;22.10;99.90;;;;;;5077324;28;20309;-10
2022/09/10 14:21:10;;;;;;;;;;;22.10;99.90;;;;;;5093368;28;19959;-10
2022/09/10 14:23:40;;;;;;;;;;;22.10;99.90;;;;;;5081013;28;19934;-10
2022/09/10 14:26:10;;;;;;;;;;;22.10;99.90;;;;;;5075950;28;19973;-10
2022/09/10 14:28:47;;;;;;;;;;;22.00;99.90;;;;;;5096006;28;19973;-10
2022/09/10 14:31:21;;;;;;;;;;;22.00;99.90;;;;;;5088064;28;19923;-11
2022/09/10 14:33:47;;;;;;;;;;;22.00;99.90;;;;;;5080459;28;20011;-9